Time;durP1;ratioP1;P1;durP2;ratioP2;P2;SDS_P1;SDS_P2;PMS_P1;PMS_P2;Temp;Humidity;BMP_temperature;BMP_pressure;BME280_temperature;BME280_humidity;BME280_pressure;Samples;Min_cycle;Max_cycle;Signal;HPM_P1;HPM_P2
2022/03/03 05:01:10;;;;;;;16.10;13.67;;;;;;;4.59;53.85;99302.66;5468870;23;20794;-84
2022/03/03 05:06:26;;;;;;;17.23;13.23;;;;;;;2.21;54.02;98954.22;5415473;23;20042;-88
2022/03/03 05:09:02;;;;;;;16.50;14.67;;;;;;;1.18;53.67;98766.66;5171448;23;20034;-90
2022/03/03 05:11:32;;;;;;;18.77;15.20;;;;;;;2.49;54.12;98984.63;5019368;28;20054;-89
2022/03/03 05:29:52;;;;;;;20.23;14.53;;;;;;;2.34;53.83;98967.81;5902215;23;20041;-89
2022/03/03 05:32:38;;;;;;;18.83;15.13;;;;;;;2.98;53.84;99081.81;5474858;23;20010;-88
2022/03/03 05:38:05;;;;;;;17.47;14.50;;;;;;;3.72;53.82;99178.44;5074968;23;20068;-86
2022/03/03 06:46:01;;;;;;;23.63;17.50;;;;;;;3.26;52.51;99080.09;5672859;23;20038;-89
2022/03/03 06:48:39;;;;;;;22.37;16.53;;;;;;;2.95;52.61;99022.09;5021685;28;20049;-90
2022/03/03 06:51:06;;;;;;;25.17;17.53;;;;;;;3.21;52.66;99035.34;5021676;28;20042;-90
2022/03/03 06:53:36;;;;;;;27.70;19.87;;;;;;;3.89;52.58;99160.34;5005365;28;20014;-90
2022/03/03 06:56:11;;;;;;;26.23;18.60;;;;;;;2.26;52.27;98896.53;5022050;28;20014;-89
2022/03/03 07:01:14;;;;;;;24.87;18.30;;;;;;;4.16;52.45;99238.72;5132408;23;20059;-85
2022/03/03 07:09:43;;;;;;;20.93;16.47;;;;;;;3.57;52.65;99137.25;6005365;23;20005;-85
2022/03/03 07:26:09;;;;;;;22.88;16.45;;;;;;;3.86;52.22;99171.91;5103288;23;20058;-87
2022/03/03 07:28:38;;;;;;;21.37;16.17;;;;;;;3.75;52.09;99123.31;5009848;28;20034;-88
2022/03/03 07:31:03;;;;;;;17.83;14.37;;;;;;;5.04;51.87;99279.91;5002743;28;20049;-90
2022/03/03 07:33:38;;;;;;;24.47;18.70;;;;;;;5.61;51.87;99364.22;4997439;28;20030;-89
2022/03/03 07:36:08;;;;;;;23.60;18.37;;;;;;;5.51;51.90;99373.13;4996778;28;20033;-89
2022/03/03 07:38:38;;;;;;;20.47;15.80;;;;;;;4.24;51.68;99136.91;4997022;28;20026;-87
2022/03/03 07:41:06;;;;;;;21.80;16.73;;;;;;;5.71;51.81;99369.38;4980404;28;20054;-90
2022/03/03 07:43:31;;;;;;;20.80;15.90;;;;;;;3.93;51.21;99086.78;4995448;28;20037;-91
2022/03/03 07:45:57;;;;;;;19.77;15.47;;;;;;;5.19;51.59;99308.19;4979244;28;20026;-91
2022/03/03 07:48:24;;;;;;;18.97;16.00;;;;;;;3.88;51.19;99085.59;5007283;28;20053;-91
2022/03/03 07:50:50;;;;;;;20.77;16.33;;;;;;;5.28;51.53;99350.00;5015306;28;20030;-90
2022/03/03 07:53:16;;;;;;;18.67;15.27;;;;;;;4.08;51.46;99145.41;5020680;28;20021;-89
2022/03/03 07:55:55;;;;;;;18.63;16.20;;;;;;;5.33;51.29;99307.69;5020624;28;20049;-90
2022/03/03 07:58:26;;;;;;;18.98;16.25;;;;;;;5.81;51.41;99367.50;5002341;28;20049;-91
2022/03/03 08:00:57;;;;;;;18.83;15.45;;;;;;;4.75;51.30;99195.59;4975626;28;20034;-90
2022/03/03 08:03:23;;;;;;;18.07;14.77;;;;;;;5.88;51.26;99370.31;4975444;28;20043;-90
2022/03/03 08:05:51;;;;;;;21.60;15.43;;;;;;;4.18;51.25;99102.72;4958258;28;20428;-91
2022/03/03 08:08:21;;;;;;;17.93;13.80;;;;;;;4.07;51.27;99133.31;4975684;28;20050;-90
2022/03/03 08:10:48;;;;;;;18.03;14.37;;;;;;;4.67;50.76;99180.66;4977320;28;20488;-91
2022/03/03 08:13:17;;;;;;;16.67;13.80;;;;;;;5.46;51.06;99295.03;4957781;28;20017;-92
2022/03/03 08:15:45;;;;;;;20.20;17.80;;;;;;;6.07;50.95;99366.75;4957894;28;20033;-91
2022/03/03 08:18:11;;;;;;;25.50;19.57;;;;;;;5.40;50.95;99285.16;4975308;28;20031;-92
2022/03/03 08:20:38;;;;;;;18.13;15.20;;;;;;;6.17;50.87;99370.91;4959136;28;20506;-91
2022/03/03 08:23:06;;;;;;;19.37;16.50;;;;;;;5.74;51.00;99362.03;4975572;28;20041;-91
2022/03/03 08:25:34;;;;;;;17.37;15.43;;;;;;;5.74;50.81;99332.41;4957389;28;20051;-92
2022/03/03 08:28:02;;;;;;;16.27;14.03;;;;;;;6.16;50.80;99400.72;4960509;28;20035;-91
2022/03/03 08:30:29;;;;;;;17.80;14.27;;;;;;;5.60;50.58;99304.97;4974211;28;20023;-92
2022/03/03 08:33:02;;;;;;;20.97;16.70;;;;;;;6.31;50.73;99408.84;4975079;28;20491;-92
2022/03/03 08:35:33;;;;;;;19.17;15.50;;;;;;;6.09;50.64;99363.00;4970322;28;20073;-93
2022/03/03 08:38:22;;;;;;;18.33;14.63;;;;;;;5.41;50.01;99258.00;4959375;28;20050;-94
2022/03/03 08:40:50;;;;;;;19.13;16.08;;;;;;;4.97;50.27;99205.59;4976662;28;20543;-92
2022/03/03 08:43:20;;;;;;;19.27;15.47;;;;;;;6.00;50.62;99332.47;4975649;28;20365;-92
2022/03/03 08:45:48;;;;;;;18.27;15.23;;;;;;;5.39;50.12;99239.84;4957854;28;20038;-92
2022/03/03 08:48:15;;;;;;;18.20;15.30;;;;;;;5.79;50.58;99303.13;4957578;28;20122;-94
2022/03/03 08:50:42;;;;;;;20.50;16.73;;;;;;;5.80;50.69;99302.16;4973728;28;20058;-92
2022/03/03 08:53:09;;;;;;;19.07;16.40;;;;;;;5.32;50.70;99248.44;4960256;28;20034;-93
2022/03/03 08:55:37;;;;;;;22.77;18.23;;;;;;;6.09;50.61;99343.84;4973780;28;20029;-92
2022/03/03 08:58:04;;;;;;;20.70;16.83;;;;;;;6.20;50.87;99370.63;4957562;28;20045;-91
2022/03/03 09:00:30;;;;;;;19.63;17.53;;;;;;;6.36;50.65;99389.06;4957514;28;20037;-92
2022/03/03 09:02:57;;;;;;;21.30;17.48;;;;;;;6.35;50.80;99412.81;4958645;28;20130;-92
2022/03/03 09:05:24;;;;;;;21.77;17.67;;;;;;;6.30;50.83;99383.63;4957245;28;20475;-91
2022/03/03 09:07:49;;;;;;;21.17;18.47;;;;;;;6.08;50.93;99350.88;4957167;28;20033;-91
2022/03/03 09:10:15;;;;;;;23.53;18.17;;;;;;;5.87;51.42;99337.25;4974378;28;20031;-92
2022/03/03 09:12:41;;;;;;;23.13;18.87;;;;;;;5.28;51.21;99227.00;4973292;28;20026;-92
2022/03/03 09:15:07;;;;;;;23.40;19.20;;;;;;;6.11;51.15;99352.38;4958298;28;20031;-92
2022/03/03 09:17:33;;;;;;;20.27;16.93;;;;;;;6.10;51.07;99346.31;4956774;28;20027;-92
2022/03/03 09:20:02;;;;;;;22.63;18.07;;;;;;;6.13;51.29;99326.81;4957139;28;20487;-92
2022/03/03 09:22:28;;;;;;;23.47;18.30;;;;;;;6.51;51.54;99394.56;4958997;28;20037;-92
2022/03/03 09:24:54;;;;;;;22.87;17.97;;;;;;;5.20;50.85;99210.38;4957016;28;20473;-93
2022/03/03 09:27:20;;;;;;;24.60;18.43;;;;;;;5.69;51.09;99245.59;4956854;28;20026;-93
2022/03/03 09:29:45;;;;;;;23.00;18.83;;;;;;;6.88;50.87;99401.31;4973068;28;20038;-93
2022/03/03 09:32:13;;;;;;;25.27;19.60;;;;;;;6.03;50.82;99243.88;4957063;28;20029;-91
2022/03/03 09:34:39;;;;;;;21.87;17.90;;;;;;;7.08;50.24;99373.00;4958533;28;20105;-92
2022/03/03 09:37:05;;;;;;;27.10;20.00;;;;;;;6.24;50.17;99203.34;4956942;28;20058;-92
2022/03/03 09:39:30;;;;;;;23.43;20.20;;;;;;;7.40;50.30;99407.22;4956604;28;20019;-92
2022/03/03 09:41:56;;;;;;;25.88;20.27;;;;;;;6.81;50.38;99298.78;4972981;28;20034;-92
2022/03/03 09:44:23;;;;;;;27.15;21.98;;;;;;;7.18;50.53;99329.88;4956750;28;20173;-93
2022/03/03 09:46:49;;;;;;;23.58;19.08;;;;;;;7.44;50.01;99373.59;4958223;28;20216;-93
2022/03/03 09:49:15;;;;;;;23.33;18.75;;;;;;;7.68;49.89;99388.56;4956626;28;20034;-92
2022/03/03 09:51:40;;;;;;;23.70;19.13;;;;;;;7.03;49.72;99291.28;4973790;28;20041;-92
2022/03/03 09:54:07;;;;;;;25.88;20.88;;;;;;;7.69;49.83;99390.22;4955310;28;20484;-92
2022/03/03 09:56:33;;;;;;;24.45;19.92;;;;;;;7.51;49.91;99362.28;4959170;28;20082;-93
2022/03/03 09:58:58;;;;;;;24.63;20.42;;;;;;;6.71;49.63;99243.00;4956560;28;20038;-93
2022/03/03 10:01:28;;;;;;;22.15;17.63;;;;;;;6.80;50.19;99252.53;4956207;28;20101;-92
2022/03/03 10:03:54;;;;;;;20.10;17.27;;;;;;;6.98;49.54;99268.97;4973281;28;20035;-92
2022/03/03 10:06:22;;;;;;;20.50;17.77;;;;;;;7.15;49.21;99295.25;4956365;28;20029;-94
2022/03/03 10:08:50;;;;;;;22.50;17.15;;;;;;;7.88;49.50;99384.63;4959596;28;20085;-92
2022/03/03 10:11:15;;;;;;;21.55;16.98;;;;;;;7.51;49.37;99322.06;4972203;28;20022;-92
2022/03/03 10:13:49;;;;;;;22.42;18.30;;;;;;;7.91;49.22;99384.31;4956265;28;20026;-92
2022/03/03 10:16:23;;;;;;;22.23;18.52;;;;;;;8.03;49.30;99380.34;4956420;28;20527;-92
2022/03/03 10:19:03;;;;;;;21.75;18.27;;;;;;;7.23;49.25;99264.56;4956981;28;20054;-94
2022/03/03 10:21:32;;;;;;;23.13;18.73;;;;;;;8.27;49.34;99371.63;4972302;28;20065;-92
2022/03/03 10:23:59;;;;;;;19.50;16.55;;;;;;;7.55;48.95;99262.94;4955608;28;20483;-93
2022/03/03 10:26:38;;;;;;;24.50;16.85;;;;;;;7.80;48.81;99303.16;4955330;28;20054;-93
2022/03/03 10:29:18;;;;;;;22.58;17.30;;;;;;;8.28;48.36;99357.50;4974304;28;20031;-93
2022/03/03 10:31:45;;;;;;;18.25;16.20;;;;;;;8.00;48.81;99322.84;4955718;28;20089;-92
2022/03/03 10:34:16;;;;;;;19.75;17.35;;;;;;;7.80;48.39;99301.34;4955537;28;20035;-92
2022/03/03 10:36:42;;;;;;;20.50;16.77;;;;;;;8.00;48.58;99330.72;4955650;28;20034;-93
2022/03/03 10:39:07;;;;;;;20.33;17.05;;;;;;;8.20;48.12;99366.22;4956065;28;20416;-93
2022/03/03 10:41:44;;;;;;;21.90;15.88;;;;;;;8.24;48.45;99366.72;4955971;28;20035;-93
2022/03/03 10:44:22;;;;;;;20.48;16.23;;;;;;;7.88;48.64;99332.88;4974957;28;20107;-93
2022/03/03 10:47:03;;;;;;;24.17;15.93;;;;;;;7.67;48.56;99298.41;4956016;28;20038;-93
2022/03/03 10:49:30;;;;;;;18.30;15.40;;;;;;;8.22;48.85;99361.63;4956154;28;20039;-92
2022/03/03 10:52:29;;;;;;;19.80;15.07;;;;;;;8.34;48.14;99385.78;4957938;28;20117;-93
2022/03/03 10:55:10;;;;;;;20.83;16.77;;;;;;;8.47;47.78;99359.78;4959028;28;20026;-90
2022/03/03 10:57:42;;;;;;;17.83;15.05;;;;;;;8.59;47.89;99366.31;4960230;28;20407;-91
2022/03/03 11:00:19;;;;;;;20.02;15.20;;;;;;;8.27;47.61;99290.09;4976437;28;20150;-90
2022/03/03 11:02:47;;;;;;;20.40;16.02;;;;;;;8.60;47.61;99346.09;4959233;28;20536;-91
2022/03/03 11:05:14;;;;;;;20.55;17.20;;;;;;;8.41;47.58;99302.56;4958638;28;20042;-90
2022/03/03 11:07:43;;;;;;;19.65;16.70;;;;;;;7.90;47.36;99220.50;4958847;28;20019;-91
2022/03/03 11:10:15;;;;;;;20.33;15.77;;;;;;;7.96;47.77;99245.28;4959401;28;20496;-91
2022/03/03 11:12:43;;;;;;;18.17;14.65;;;;;;;7.87;47.35;99217.41;4958790;28;20030;-92
2022/03/03 11:15:10;;;;;;;20.83;17.33;;;;;;;8.34;47.31;99253.44;4958421;28;20189;-91
2022/03/03 11:17:36;;;;;;;18.85;14.85;;;;;;;9.04;47.06;99335.06;4958168;28;20023;-91
2022/03/03 11:20:04;;;;;;;15.48;13.70;;;;;;;8.65;46.50;99256.09;4958321;28;20029;-91
2022/03/03 11:22:31;;;;;;;17.35;14.48;;;;;;;9.26;46.51;99334.25;4957909;28;20023;-90
2022/03/03 11:25:09;;;;;;;17.75;14.38;;;;;;;8.99;46.14;99248.69;4976306;28;20125;-91
2022/03/03 11:27:39;;;;;;;15.07;12.80;;;;;;;9.56;45.80;99330.75;4958871;28;20077;-92
2022/03/03 11:30:11;;;;;;;14.35;12.70;;;;;;;8.89;45.06;99224.38;4975840;28;20031;-92
2022/03/03 11:32:37;;;;;;;14.55;13.00;;;;;;;8.94;44.95;99247.56;4958586;28;20086;-92
2022/03/03 11:35:07;;;;;;;17.45;14.07;;;;;;;8.58;44.82;99185.75;4959524;28;20137;-92
2022/03/03 11:37:39;;;;;;;16.30;13.70;;;;;;;9.20;45.11;99274.38;4958605;28;20022;-92
2022/03/03 11:40:05;;;;;;;17.33;13.18;;;;;;;9.54;45.30;99324.84;4958410;28;20353;-92
2022/03/03 11:42:34;;;;;;;13.30;11.80;;;;;;;9.47;45.20;99320.44;4958034;28;20046;-92
2022/03/03 11:45:03;;;;;;;14.13;12.55;;;;;;;9.54;44.78;99318.75;4960494;28;20121;-92
2022/03/03 11:47:34;;;;;;;17.05;13.82;;;;;;;9.06;45.05;99256.69;4959745;28;20023;-92
2022/03/03 11:50:13;;;;;;;14.88;11.50;;;;;;;9.60;44.75;99319.84;4958597;28;20026;-94
2022/03/03 11:52:41;;;;;;;18.60;12.45;;;;;;;9.44;44.52;99305.81;4958586;28;20085;-93
2022/03/03 11:55:27;;;;;;;12.38;10.52;;;;;;;9.34;44.20;99312.31;4958921;28;20507;-91
2022/03/03 11:57:54;;;;;;;14.38;10.95;;;;;;;8.87;44.44;99247.41;4959798;28;20014;-91
2022/03/03 12:00:19;;;;;;;11.10;9.95;;;;;;;9.22;44.28;99301.38;4958494;28;20053;-92
2022/03/03 12:03:15;;;;;;;12.82;10.35;;;;;;;9.26;44.24;99312.38;4957763;28;20062;-92
2022/03/03 12:05:46;;;;;;;13.15;10.65;;;;;;;9.08;45.00;99297.66;4942119;28;20138;-93
2022/03/03 12:08:11;;;;;;;15.10;10.30;;;;;;;9.02;45.08;99323.88;4958029;28;20109;-94
2022/03/03 12:10:55;;;;;;;12.02;10.43;;;;;;;9.07;45.17;99317.09;4958221;28;20061;-93
2022/03/03 12:13:26;;;;;;;11.38;10.13;;;;;;;9.11;44.78;99314.94;4957996;28;20042;-91
2022/03/03 12:16:25;;;;;;;12.75;10.00;;;;;;;9.06;44.75;99310.19;4957675;28;20027;-92
2022/03/03 12:18:54;;;;;;;12.65;9.00;;;;;;;8.96;44.71;99314.03;4958735;28;20042;-91
2022/03/03 12:21:45;;;;;;;13.38;10.25;;;;;;;8.87;45.03;99310.59;4957467;28;20583;-93
2022/03/03 12:24:14;;;;;;;13.65;11.05;;;;;;;8.80;45.33;99305.19;4957013;28;20030;-90
2022/03/03 12:27:00;;;;;;;13.90;11.68;;;;;;;8.70;45.56;99317.75;4974285;28;20038;-92
2022/03/03 12:29:51;;;;;;;12.05;10.68;;;;;;;8.63;45.60;99308.09;4957122;28;20031;-91
2022/03/03 12:32:36;;;;;;;12.18;10.77;;;;;;;8.52;45.93;99309.28;4957423;28;20031;-93
2022/03/03 12:35:24;;;;;;;15.05;11.80;;;;;;;7.90;45.59;99223.13;4976001;28;20030;-92
2022/03/03 12:37:50;;;;;;;16.80;12.70;;;;;;;8.51;45.91;99305.81;4957404;28;20411;-92
2022/03/03 12:40:17;;;;;;;17.77;13.02;;;;;;;8.01;46.30;99232.47;4957098;28;20023;-92
2022/03/03 12:42:46;;;;;;;16.80;12.32;;;;;;;8.53;46.05;99306.47;4974561;28;20053;-92
2022/03/03 12:45:15;;;;;;;14.63;10.93;;;;;;;7.77;46.18;99178.16;4957565;28;20514;-91
2022/03/03 12:47:48;;;;;;;11.93;9.63;;;;;;;8.21;45.88;99244.25;4973270;28;20073;-92
2022/03/03 12:50:21;;;;;;;12.60;10.55;;;;;;;8.14;45.74;99237.19;4974591;28;20420;-92
2022/03/03 12:53:06;;;;;;;13.25;11.07;;;;;;;8.60;45.40;99312.69;4959844;28;20475;-91
2022/03/03 12:55:43;;;;;;;11.02;9.77;;;;;;;7.89;45.94;99210.16;4986010;28;20093;-91
2022/03/03 12:58:11;;;;;;;15.77;11.95;;;;;;;8.22;45.92;99263.50;4969913;28;20027;-91
2022/03/03 13:00:41;;;;;;;12.45;10.07;;;;;;;8.05;45.64;99225.88;4971037;28;20137;-92
2022/03/03 13:03:07;;;;;;;10.90;9.50;;;;;;;8.18;45.89;99270.09;4959355;28;20058;-92
2022/03/03 13:05:37;;;;;;;13.70;10.60;;;;;;;8.60;46.11;99304.81;4959352;28;20034;-93
2022/03/03 13:08:04;;;;;;;13.45;9.80;;;;;;;8.26;45.81;99252.47;4976078;28;20054;-92
2022/03/03 13:10:32;;;;;;;11.77;9.80;;;;;;;7.81;45.92;99200.50;4956520;28;20027;-92
2022/03/03 13:12:59;;;;;;;13.18;10.32;;;;;;;8.54;45.89;99307.31;4956367;28;20492;-92
2022/03/03 13:15:31;;;;;;;14.88;10.63;;;;;;;8.61;45.67;99308.25;4956490;28;20038;-92
2022/03/03 13:18:14;;;;;;;15.20;11.27;;;;;;;8.61;45.37;99303.00;4956811;28;20081;-91
2022/03/03 13:20:42;;;;;;;14.82;11.25;;;;;;;7.84;45.73;99197.53;4956741;28;20034;-92
2022/03/03 13:23:11;;;;;;;13.88;11.25;;;;;;;8.55;45.62;99293.16;4956876;28;20126;-92
2022/03/03 13:25:37;;;;;;;17.10;11.27;;;;;;;8.19;45.67;99251.50;4975210;28;20066;-92
2022/03/03 13:28:03;;;;;;;13.77;11.43;;;;;;;8.26;45.87;99257.72;4957713;28;20061;-92
2022/03/03 13:30:29;;;;;;;12.00;10.52;;;;;;;8.28;45.88;99275.97;4958357;28;20031;-92
2022/03/03 13:32:55;;;;;;;16.98;11.93;;;;;;;8.35;45.90;99266.44;4998030;28;20019;-89
2022/03/03 13:35:23;;;;;;;16.30;11.82;;;;;;;6.58;45.32;98996.88;4982582;28;20043;-91
2022/03/03 13:37:49;;;;;;;14.75;11.88;;;;;;;7.45;45.98;99158.06;4978650;28;20085;-91
2022/03/03 13:40:22;;;;;;;19.60;12.50;;;;;;;7.37;45.97;99107.31;4992574;28;20574;-92
2022/03/03 13:42:53;;;;;;;16.13;11.48;;;;;;;8.33;45.98;99257.88;4975643;28;20035;-92
2022/03/03 13:45:31;;;;;;;16.00;12.52;;;;;;;8.25;45.88;99271.88;4992120;28;20034;-92
2022/03/03 13:48:05;;;;;;;17.90;13.38;;;;;;;7.41;45.95;99150.66;4974389;28;20118;-92
2022/03/03 13:50:32;;;;;;;17.38;12.90;;;;;;;8.40;46.10;99306.19;4955383;28;20030;-92
2022/03/03 13:53:12;;;;;;;18.95;13.40;;;;;;;8.41;46.33;99302.56;4955584;28;20085;-92
2022/03/03 13:55:38;;;;;;;16.48;12.82;;;;;;;8.05;46.27;99254.81;4974268;28;20033;-92
2022/03/03 13:58:05;;;;;;;18.83;13.95;;;;;;;7.58;46.17;99210.06;4973191;28;20106;-93
2022/03/03 14:00:43;;;;;;;21.20;13.93;;;;;;;8.38;45.75;99307.34;4955736;28;20035;-92
2022/03/03 14:03:10;;;;;;;23.92;16.05;;;;;;;8.35;46.00;99310.34;4955849;28;20038;-91
2022/03/03 14:05:46;;;;;;;15.80;11.57;;;;;;;7.76;45.98;99215.13;4955665;28;20143;-92
2022/03/03 14:08:18;;;;;;;15.25;11.77;;;;;;;8.27;46.06;99311.97;4956205;28;20050;-92
2022/03/03 14:10:52;;;;;;;15.25;10.90;;;;;;;8.35;45.47;99326.13;4972828;28;20035;-93
2022/03/03 14:13:19;;;;;;;12.98;10.35;;;;;;;8.27;45.59;99337.44;4973047;28;20031;-92
2022/03/03 14:15:46;;;;;;;13.40;9.82;;;;;;;7.61;45.64;99209.75;4956090;28;20538;-92
2022/03/03 14:18:14;;;;;;;12.13;9.65;;;;;;;7.74;45.37;99233.69;4973983;28;20515;-92
2022/03/03 14:20:39;;;;;;;10.90;9.35;;;;;;;8.03;45.31;99284.88;4955728;28;20034;-92
2022/03/03 14:23:05;;;;;;;11.13;9.35;;;;;;;8.37;44.89;99324.13;4955650;28;20031;-92
2022/03/03 14:25:30;;;;;;;14.23;10.18;;;;;;;7.80;44.91;99230.38;4974873;28;20059;-90
2022/03/03 14:27:59;;;;;;;12.50;9.18;;;;;;;8.11;44.73;99288.31;4960177;28;20091;-91
2022/03/03 14:30:26;;;;;;;13.52;10.30;;;;;;;8.31;44.11;99325.59;4976555;28;20072;-91
2022/03/03 14:32:51;;;;;;;13.23;10.52;;;;;;;7.93;44.10;99256.16;4959145;28;20478;-90
2022/03/03 14:35:17;;;;;;;13.05;10.82;;;;;;;8.04;44.54;99294.41;4976247;28;20026;-90
2022/03/03 14:37:43;;;;;;;12.18;10.88;;;;;;;7.57;44.38;99239.97;4959907;28;20035;-90
2022/03/03 14:40:10;;;;;;;13.85;9.82;;;;;;;8.31;44.71;99330.84;4958925;28;20089;-91
2022/03/03 14:42:36;;;;;;;12.55;9.20;;;;;;;8.04;44.86;99295.22;4959007;28;20055;-90
2022/03/03 14:45:03;;;;;;;14.43;10.25;;;;;;;7.58;44.41;99200.38;4976382;28;20176;-92
2022/03/03 14:47:29;;;;;;;12.50;10.55;;;;;;;8.13;44.55;99298.66;4963629;28;20027;-92
2022/03/03 14:49:54;;;;;;;14.93;11.02;;;;;;;8.06;44.88;99319.53;4958817;28;20030;-91
2022/03/03 14:52:20;;;;;;;12.23;10.45;;;;;;;7.97;45.32;99317.91;4958744;28;20015;-92
2022/03/03 14:54:45;;;;;;;18.33;12.55;;;;;;;7.42;45.44;99217.94;4976011;28;20035;-93
2022/03/03 14:57:11;;;;;;;13.15;10.82;;;;;;;7.88;45.34;99305.78;4959267;28;20037;-92
2022/03/03 14:59:37;;;;;;;16.77;11.52;;;;;;;7.93;45.67;99321.88;4958473;28;20037;-92
2022/03/03 15:02:03;;;;;;;13.98;10.43;;;;;;;7.35;45.27;99249.31;4958656;28;20111;-92
2022/03/03 15:04:30;;;;;;;15.95;11.85;;;;;;;7.02;45.35;99169.72;4958715;28;20105;-91
2022/03/03 15:06:55;;;;;;;14.13;11.88;;;;;;;8.03;45.68;99334.84;4958779;28;20113;-92
2022/03/03 15:09:21;;;;;;;13.07;10.93;;;;;;;7.64;45.82;99273.28;4975459;28;20114;-92
2022/03/03 15:11:47;;;;;;;15.15;12.40;;;;;;;6.76;45.94;99114.78;4958291;28;20031;-92
2022/03/03 15:14:13;;;;;;;14.55;11.48;;;;;;;7.87;45.38;99291.81;4958772;28;20488;-92
2022/03/03 15:16:39;;;;;;;14.02;12.18;;;;;;;8.18;45.87;99343.72;4975666;28;20037;-92
2022/03/03 15:19:07;;;;;;;16.58;12.60;;;;;;;7.85;45.73;99296.41;4958496;28;20034;-92
2022/03/03 15:21:37;;;;;;;17.33;14.10;;;;;;;7.63;45.29;99241.91;4958453;28;20031;-91
2022/03/03 15:24:07;;;;;;;17.10;13.38;;;;;;;7.80;45.76;99277.69;4975806;28;20027;-92
2022/03/03 15:26:35;;;;;;;17.52;13.82;;;;;;;8.03;46.08;99321.69;4958258;28;20475;-92
2022/03/03 15:29:08;;;;;;;16.52;14.02;;;;;;;8.24;46.05;99335.16;4958181;28;20031;-92
2022/03/03 15:31:33;;;;;;;20.10;15.45;;;;;;;7.08;45.99;99157.75;4976006;28;20522;-93
2022/03/03 15:36:47;;;;;;;23.83;17.83;;;;;;;8.04;46.27;99316.25;4974642;28;20099;-92
2022/03/03 15:39:13;;;;;;;21.27;15.95;;;;;;;7.52;45.98;99240.47;4957877;28;20030;-92
2022/03/03 15:41:40;;;;;;;31.80;21.02;;;;;;;8.23;45.95;99359.81;4958391;28;20030;-92
2022/03/03 15:44:05;;;;;;;26.25;18.67;;;;;;;8.22;46.45;99348.47;4957832;28;20121;-92
2022/03/03 15:46:31;;;;;;;26.08;18.10;;;;;;;7.95;46.26;99322.53;4957744;28;20062;-92
2022/03/03 15:48:57;;;;;;;23.98;18.10;;;;;;;6.55;46.92;99093.44;4975308;28;20121;-92
2022/03/03 15:51:22;;;;;;;28.08;21.85;;;;;;;7.41;46.62;99260.97;4957877;28;20042;-92
2022/03/03 15:53:48;;;;;;;28.80;21.73;;;;;;;7.91;47.00;99329.09;4957692;28;20408;-92
2022/03/03 15:56:14;;;;;;;25.45;20.08;;;;;;;7.96;46.98;99327.63;4957301;28;20030;-93
2022/03/03 15:58:39;;;;;;;29.50;22.40;;;;;;;7.63;47.06;99292.66;4958081;28;20022;-93
2022/03/03 16:01:06;;;;;;;24.23;19.50;;;;;;;7.88;47.33;99329.44;4957520;28;20492;-92
2022/03/03 16:03:32;;;;;;;29.17;21.45;;;;;;;7.19;47.29;99217.78;4957010;28;20490;-91
2022/03/03 16:05:58;;;;;;;30.60;21.85;;;;;;;8.07;47.41;99362.44;4974311;28;20102;-93
2022/03/03 16:08:23;;;;;;;33.88;25.80;;;;;;;7.95;47.44;99356.69;4974934;28;20049;-92
2022/03/03 16:10:49;;;;;;;30.95;24.02;;;;;;;7.57;47.41;99287.25;4957384;28;20495;-92
2022/03/03 16:13:15;;;;;;;34.40;24.95;;;;;;;7.63;47.53;99324.19;4957571;28;20481;-92
2022/03/03 16:15:42;;;;;;;34.58;25.13;;;;;;;7.56;47.53;99289.06;4957415;28;20105;-92
2022/03/03 16:18:07;;;;;;;33.03;22.23;;;;;;;8.03;47.48;99390.03;4957993;28;20046;-91
2022/03/03 16:20:33;;;;;;;32.75;24.65;;;;;;;7.72;47.40;99342.59;4957223;28;20089;-92
2022/03/03 16:22:58;;;;;;;31.15;23.77;;;;;;;6.91;47.59;99201.53;4974029;28;20488;-92
2022/03/03 16:25:24;;;;;;;29.38;23.17;;;;;;;7.98;47.75;99391.38;4956758;28;20050;-92
2022/03/03 16:27:49;;;;;;;30.10;23.25;;;;;;;7.29;47.96;99277.03;4958061;28;20027;-92
2022/03/03 16:30:15;;;;;;;38.80;28.50;;;;;;;7.54;47.70;99334.88;4957499;28;20420;-91
2022/03/03 16:32:43;;;;;;;35.95;25.17;;;;;;;7.30;47.92;99296.25;4958079;28;20023;-92
2022/03/03 16:35:11;;;;;;;32.80;25.25;;;;;;;7.13;47.91;99289.34;4957401;28;20495;-92
2022/03/03 16:37:37;;;;;;;38.67;27.13;;;;;;;7.34;47.46;99308.06;4957676;28;20031;-92
2022/03/03 16:40:06;;;;;;;36.40;27.20;;;;;;;7.30;47.74;99331.19;4957463;28;20037;-92
2022/03/03 16:42:32;;;;;;;46.88;33.05;;;;;;;7.80;47.76;99406.47;4973183;28;20050;-92
2022/03/03 16:44:58;;;;;;;43.35;32.00;;;;;;;7.80;48.20;99414.38;4957230;28;20035;-92
2022/03/03 16:47:23;;;;;;;46.90;34.38;;;;;;;6.55;48.07;99258.69;4974176;28;20105;-92
2022/03/03 16:49:50;;;;;;;47.22;33.03;;;;;;;6.93;48.34;99280.94;4956208;28;20030;-92
2022/03/03 16:52:17;;;;;;;55.95;38.15;;;;;;;7.56;48.36;99402.03;4957052;28;20025;-91
2022/03/03 16:54:45;;;;;;;65.85;44.03;;;;;;;7.45;48.29;99383.94;4957451;28;20027;-91
2022/03/03 16:57:12;;;;;;;60.75;39.72;;;;;;;7.70;48.15;99415.50;4957171;28;20427;-92
2022/03/03 16:59:38;;;;;;;64.63;43.25;;;;;;;6.91;48.55;99306.53;4956416;28;20037;-91
2022/03/03 17:02:04;;;;;;;45.15;32.28;;;;;;;7.65;48.46;99423.88;4956456;28;20030;-92
2022/03/03 17:04:29;;;;;;;43.45;33.67;;;;;;;7.41;48.66;99384.41;4974025;28;20035;-92
2022/03/03 17:06:55;;;;;;;45.55;34.25;;;;;;;7.27;48.81;99383.22;4974046;28;20496;-93
2022/03/03 17:09:20;;;;;;;46.15;36.17;;;;;;;7.31;49.05;99380.13;4956569;28;20046;-92
2022/03/03 17:11:46;;;;;;;47.00;34.95;;;;;;;6.76;48.90;99321.25;4957068;28;20027;-92
2022/03/03 17:14:11;;;;;;;51.97;35.28;;;;;;;6.45;49.26;99266.69;4957142;28;20027;-91
2022/03/03 17:16:37;;;;;;;60.25;38.47;;;;;;;7.19;49.07;99383.22;4956505;28;20031;-92
2022/03/03 17:19:03;;;;;;;55.60;36.45;;;;;;;7.48;49.55;99430.09;4956671;28;20031;-92
2022/03/03 17:21:30;;;;;;;61.05;40.35;;;;;;;7.44;50.02;99442.72;4975340;28;20551;-92
2022/03/03 17:23:55;;;;;;;76.30;49.10;;;;;;;7.43;49.93;99434.97;4956535;28;20496;-93
2022/03/03 17:26:21;;;;;;;83.32;53.95;;;;;;;7.03;49.56;99401.53;4956290;28;20056;-95
2022/03/03 17:28:48;;;;;;;70.95;47.63;;;;;;;7.34;50.38;99429.69;4956548;28;20029;-94
2022/03/03 17:31:14;;;;;;;60.08;43.20;;;;;;;7.32;50.24;99459.72;4957055;28;20042;-93
2022/03/03 17:33:40;;;;;;;56.67;40.53;;;;;;;7.01;50.18;99409.56;4956433;28;20062;-93
2022/03/03 17:36:07;;;;;;;55.38;40.03;;;;;;;7.22;50.69;99451.97;4956511;28;20030;-94
2022/03/03 17:38:33;;;;;;;51.90;38.92;;;;;;;7.21;50.49;99439.00;4959124;28;20031;-94
2022/03/03 17:40:59;;;;;;;47.15;36.50;;;;;;;6.46;50.42;99343.53;4956441;28;20058;-93
2022/03/03 17:43:26;;;;;;;47.75;34.75;;;;;;;7.17;50.91;99463.94;4956548;28;20475;-93
2022/03/03 17:45:52;;;;;;;48.33;34.72;;;;;;;6.77;50.78;99404.22;4956307;28;20488;-94
2022/03/03 17:48:17;;;;;;;48.58;35.28;;;;;;;6.80;50.70;99415.22;4957685;28;20041;-93
2022/03/03 17:50:43;;;;;;;52.45;37.17;;;;;;;6.43;51.15;99349.09;4956686;28;20027;-93
2022/03/03 17:53:09;;;;;;;48.78;33.70;;;;;;;5.59;51.02;99255.34;4960467;28;20027;-94
2022/03/03 17:55:35;;;;;;;46.47;31.17;;;;;;;6.57;51.19;99409.66;4970565;28;20037;-94
2022/03/03 17:58:01;;;;;;;49.95;35.75;;;;;;;6.59;51.35;99404.25;4970271;28;20445;-94
2022/03/03 18:00:26;;;;;;;44.95;33.38;;;;;;;6.68;50.89;99411.19;4979706;28;20042;-94
2022/03/03 18:02:52;;;;;;;59.15;42.05;;;;;;;6.16;51.07;99342.25;4975243;28;20089;-93
2022/03/03 18:05:17;;;;;;;59.22;42.03;;;;;;;5.93;51.03;99320.94;4977987;28;20030;-93
2022/03/03 18:07:43;;;;;;;53.42;39.42;;;;;;;6.16;51.81;99356.16;4980247;28;20038;-93
2022/03/03 18:10:09;;;;;;;57.70;40.28;;;;;;;6.81;51.53;99460.66;4965761;28;20041;-91
2022/03/03 18:12:38;;;;;;;54.92;40.83;;;;;;;6.60;51.87;99443.47;4960146;28;20023;-93
2022/03/03 18:15:05;;;;;;;51.38;37.03;;;;;;;5.62;51.93;99302.19;4962338;28;20108;-93
2022/03/03 18:17:31;;;;;;;50.72;37.85;;;;;;;6.28;52.05;99383.78;4960017;28;20127;-94
2022/03/03 18:19:57;;;;;;;54.97;40.70;;;;;;;6.20;51.55;99378.47;4960242;28;20070;-94
2022/03/03 18:22:23;;;;;;;51.88;39.47;;;;;;;4.69;52.05;99154.34;4959979;28;20113;-94
2022/03/03 18:24:48;;;;;;;56.25;44.53;;;;;;;6.44;52.22;99445.16;4979273;28;20587;-92
2022/03/03 18:27:14;;;;;;;53.67;40.37;;;;;;;5.85;52.22;99339.19;4960198;28;20085;-92